sensor_id;sensor_type;location;lat;lon;timestamp;pressure;altitude;pressure_sealevel;temperature;humidity
11987;BME280;6053;51.382;6.768;2023-02-03T00:00:18;102126.03;;;8.84;100.00
11987;BME280;6053;51.382;6.768;2023-02-03T00:02:47;102105.91;;;8.83;100.00
11987;BME280;6053;51.382;6.768;2023-02-03T00:05:15;102110.00;;;8.87;100.00
11987;BME280;6053;51.382;6.768;2023-02-03T00:07:44;102096.53;;;9.07;100.00
11987;BME280;6053;51.382;6.768;2023-02-03T00:10:14;102097.34;;;9.52;100.00
11987;BME280;6053;51.382;6.768;2023-02-03T00:12:48;102093.19;;;9.12;100.00
11987;BME280;6053;51.382;6.768;2023-02-03T00:15:17;102096.53;;;9.37;100.00
11987;BME280;6053;51.382;6.768;2023-02-03T00:17:46;102100.41;;;8.83;100.00
11987;BME280;6053;51.382;6.768;2023-02-03T00:20:15;102096.16;;;9.25;100.00
11987;BME280;6053;51.382;6.768;2023-02-03T00:22:44;102092.16;;;8.98;100.00
11987;BME280;6053;51.382;6.768;2023-02-03T00:25:14;102097.09;;;8.88;100.00
11987;BME280;6053;51.382;6.768;2023-02-03T00:27:42;102094.63;;;9.08;100.00
11987;BME280;6053;51.382;6.768;2023-02-03T00:30:12;102089.44;;;9.13;100.00
11987;BME280;6053;51.382;6.768;2023-02-03T00:32:41;102080.50;;;8.96;100.00
11987;BME280;6053;51.382;6.768;2023-02-03T00:35:09;102091.88;;;8.93;100.00
11987;BME280;6053;51.382;6.768;2023-02-03T00:37:38;102080.69;;;9.09;100.00
11987;BME280;6053;51.382;6.768;2023-02-03T00:40:08;102071.91;;;9.86;100.00
11987;BME280;6053;51.382;6.768;2023-02-03T00:42:38;102090.03;;;9.59;100.00
11987;BME280;6053;51.382;6.768;2023-02-03T00:45:07;102086.38;;;9.08;100.00
11987;BME280;6053;51.382;6.768;2023-02-03T00:47:36;102089.56;;;8.82;100.00
11987;BME280;6053;51.382;6.768;2023-02-03T00:50:05;102081.72;;;8.93;100.00
11987;BME280;6053;51.382;6.768;2023-02-03T00:52:34;102078.41;;;8.98;100.00
11987;BME280;6053;51.382;6.768;2023-02-03T00:55:03;102084.38;;;9.02;100.00
11987;BME280;6053;51.382;6.768;2023-02-03T00:57:32;102081.63;;;9.02;100.00
11987;BME280;6053;51.382;6.768;2023-02-03T01:00:02;102107.63;;;9.43;100.00
11987;BME280;6053;51.382;6.768;2023-02-03T01:02:31;102102.81;;;9.82;100.00
11987;BME280;6053;51.382;6.768;2023-02-03T01:04:59;102120.19;;;9.82;100.00
11987;BME280;6053;51.382;6.768;2023-02-03T01:07:31;102132.72;;;9.85;100.00
11987;BME280;6053;51.382;6.768;2023-02-03T01:09:59;102135.16;;;9.73;100.00
11987;BME280;6053;51.382;6.768;2023-02-03T01:12:28;102137.28;;;9.27;100.00
11987;BME280;6053;51.382;6.768;2023-02-03T01:14:57;102126.06;;;9.28;100.00
11987;BME280;6053;51.382;6.768;2023-02-03T01:17:28;102140.00;;;9.41;100.00
11987;BME280;6053;51.382;6.768;2023-02-03T01:19:57;102146.19;;;9.58;100.00
11987;BME280;6053;51.382;6.768;2023-02-03T01:22:27;102143.16;;;9.38;100.00
11987;BME280;6053;51.382;6.768;2023-02-03T01:24:56;102153.41;;;9.44;100.00
11987;BME280;6053;51.382;6.768;2023-02-03T01:27:25;102144.50;;;9.42;100.00
11987;BME280;6053;51.382;6.768;2023-02-03T01:29:53;102144.75;;;9.03;100.00
11987;BME280;6053;51.382;6.768;2023-02-03T01:32:22;102142.59;;;9.13;100.00
11987;BME280;6053;51.382;6.768;2023-02-03T01:34:52;102141.03;;;9.55;100.00
11987;BME280;6053;51.382;6.768;2023-02-03T01:37:20;102145.22;;;9.21;100.00
11987;BME280;6053;51.382;6.768;2023-02-03T01:39:49;102147.63;;;9.10;100.00
11987;BME280;6053;51.382;6.768;2023-02-03T01:42:17;102149.34;;;9.40;100.00
11987;BME280;6053;51.382;6.768;2023-02-03T01:44:47;102146.38;;;9.12;100.00
11987;BME280;6053;51.382;6.768;2023-02-03T01:47:22;102148.09;;;9.43;100.00
11987;BME280;6053;51.382;6.768;2023-02-03T01:50:00;102138.00;;;10.01;100.00
11987;BME280;6053;51.382;6.768;2023-02-03T01:52:31;102128.44;;;9.31;100.00
11987;BME280;6053;51.382;6.768;2023-02-03T01:55:02;102131.09;;;9.54;100.00
11987;BME280;6053;51.382;6.768;2023-02-03T01:57:35;102136.53;;;9.33;100.00
11987;BME280;6053;51.382;6.768;2023-02-03T02:00:07;102142.69;;;9.20;100.00
11987;BME280;6053;51.382;6.768;2023-02-03T02:02:36;102155.59;;;9.19;100.00
11987;BME280;6053;51.382;6.768;2023-02-03T02:05:10;102151.22;;;9.40;100.00
11987;BME280;6053;51.382;6.768;2023-02-03T02:07:42;102139.34;;;9.25;100.00
11987;BME280;6053;51.382;6.768;2023-02-03T02:10:12;102144.59;;;9.49;100.00
11987;BME280;6053;51.382;6.768;2023-02-03T02:12:40;102127.50;;;9.24;100.00
11987;BME280;6053;51.382;6.768;2023-02-03T02:15:09;102131.66;;;9.35;100.00
11987;BME280;6053;51.382;6.768;2023-02-03T02:18:01;102125.94;;;9.51;100.00
11987;BME280;6053;51.382;6.768;2023-02-03T02:20:55;102113.81;;;9.82;100.00
11987;BME280;6053;51.382;6.768;2023-02-03T02:23:57;102117.00;;;9.64;100.00
11987;BME280;6053;51.382;6.768;2023-02-03T02:26:50;102105.53;;;8.86;100.00
11987;BME280;6053;51.382;6.768;2023-02-03T02:29:58;102105.84;;;9.36;100.00
11987;BME280;6053;51.382;6.768;2023-02-03T02:32:54;102085.69;;;9.35;100.00
11987;BME280;6053;51.382;6.768;2023-02-03T02:35:38;102090.53;;;9.48;100.00
11987;BME280;6053;51.382;6.768;2023-02-03T02:38:15;102089.22;;;9.80;100.00
11987;BME280;6053;51.382;6.768;2023-02-03T02:40:53;102095.59;;;9.81;100.00
11987;BME280;6053;51.382;6.768;2023-02-03T02:43:27;102090.53;;;9.48;100.00
11987;BME280;6053;51.382;6.768;2023-02-03T02:46:04;102087.13;;;9.31;100.00
11987;BME280;6053;51.382;6.768;2023-02-03T02:48:38;102096.25;;;9.47;100.00
11987;BME280;6053;51.382;6.768;2023-02-03T02:51:12;102094.22;;;9.55;100.00
11987;BME280;6053;51.382;6.768;2023-02-03T02:53:45;102087.03;;;9.39;100.00
11987;BME280;6053;51.382;6.768;2023-02-03T02:56:16;102074.31;;;9.24;100.00
11987;BME280;6053;51.382;6.768;2023-02-03T02:58:48;102074.81;;;9.12;100.00
11987;BME280;6053;51.382;6.768;2023-02-03T03:01:18;102056.28;;;9.21;100.00
11987;BME280;6053;51.382;6.768;2023-02-03T03:03:48;102065.59;;;9.05;100.00
11987;BME280;6053;51.382;6.768;2023-02-03T03:06:19;102067.19;;;9.14;100.00
11987;BME280;6053;51.382;6.768;2023-02-03T03:08:54;102074.53;;;9.73;100.00
11987;BME280;6053;51.382;6.768;2023-02-03T03:11:24;102075.53;;;10.08;100.00
11987;BME280;6053;51.382;6.768;2023-02-03T03:13:55;102086.84;;;9.41;100.00
11987;BME280;6053;51.382;6.768;2023-02-03T03:16:26;102097.97;;;9.33;100.00
11987;BME280;6053;51.382;6.768;2023-02-03T03:19:00;102108.59;;;9.36;100.00
11987;BME280;6053;51.382;6.768;2023-02-03T03:21:33;102099.78;;;9.26;100.00
11987;BME280;6053;51.382;6.768;2023-02-03T03:24:06;102086.50;;;9.65;100.00
11987;BME280;6053;51.382;6.768;2023-02-03T03:26:42;102094.81;;;9.51;100.00
11987;BME280;6053;51.382;6.768;2023-02-03T03:29:18;102080.13;;;9.14;100.00
11987;BME280;6053;51.382;6.768;2023-02-03T03:31:48;102074.72;;;9.06;100.00
11987;BME280;6053;51.382;6.768;2023-02-03T03:34:19;102083.72;;;9.00;100.00
11987;BME280;6053;51.382;6.768;2023-02-03T03:36:51;102079.44;;;9.12;100.00
11987;BME280;6053;51.382;6.768;2023-02-03T03:39:27;102085.31;;;9.38;100.00
11987;BME280;6053;51.382;6.768;2023-02-03T03:42:04;102101.56;;;9.18;100.00
11987;BME280;6053;51.382;6.768;2023-02-03T03:44:38;102098.34;;;9.15;100.00
11987;BME280;6053;51.382;6.768;2023-02-03T03:47:13;102105.84;;;9.06;100.00
11987;BME280;6053;51.382;6.768;2023-02-03T03:49:47;102085.13;;;9.25;100.00
11987;BME280;6053;51.382;6.768;2023-02-03T03:52:20;102087.88;;;9.25;100.00
11987;BME280;6053;51.382;6.768;2023-02-03T03:54:52;102081.91;;;9.36;100.00
11987;BME280;6053;51.382;6.768;2023-02-03T03:57:24;102094.13;;;9.49;100.00
11987;BME280;6053;51.382;6.768;2023-02-03T03:59:54;102081.72;;;9.23;100.00
11987;BME280;6053;51.382;6.768;2023-02-03T04:02:23;102079.34;;;9.20;100.00
11987;BME280;6053;51.382;6.768;2023-02-03T04:04:54;102086.09;;;9.32;100.00
11987;BME280;6053;51.382;6.768;2023-02-03T04:07:37;102088.75;;;9.77;100.00
11987;BME280;6053;51.382;6.768;2023-02-03T04:10:13;102088.75;;;9.40;100.00
11987;BME280;6053;51.382;6.768;2023-02-03T04:12:42;102094.03;;;9.42;100.00
11987;BME280;6053;51.382;6.768;2023-02-03T04:15:11;102107.75;;;9.20;100.00
11987;BME280;6053;51.382;6.768;2023-02-03T04:17:39;102082.47;;;9.32;100.00
11987;BME280;6053;51.382;6.768;2023-02-03T04:20:11;102081.72;;;9.23;100.00
11987;BME280;6053;51.382;6.768;2023-02-03T04:22:39;102078.03;;;9.01;100.00
11987;BME280;6053;51.382;6.768;2023-02-03T04:25:08;102081.16;;;9.28;100.00
11987;BME280;6053;51.382;6.768;2023-02-03T04:27:37;102092.72;;;9.08;100.00
11987;BME280;6053;51.382;6.768;2023-02-03T04:30:07;102092.06;;;8.91;100.00
11987;BME280;6053;51.382;6.768;2023-02-03T04:32:36;102100.41;;;8.98;100.00
11987;BME280;6053;51.382;6.768;2023-02-03T04:35:06;102091.53;;;9.26;100.00
11987;BME280;6053;51.382;6.768;2023-02-03T04:37:36;102091.50;;;9.11;100.00
11987;BME280;6053;51.382;6.768;2023-02-03T04:40:06;102091.50;;;9.11;100.00
11987;BME280;6053;51.382;6.768;2023-02-03T04:42:36;102081.06;;;9.36;100.00
11987;BME280;6053;51.382;6.768;2023-02-03T04:45:06;102077.03;;;9.38;100.00
11987;BME280;6053;51.382;6.768;2023-02-03T04:47:36;102074.13;;;9.40;100.00
11987;BME280;6053;51.382;6.768;2023-02-03T04:50:06;102083.94;;;9.64;100.00
11987;BME280;6053;51.382;6.768;2023-02-03T04:52:36;102077.75;;;9.11;100.00
11987;BME280;6053;51.382;6.768;2023-02-03T04:55:05;102067.56;;;8.82;100.00
11987;BME280;6053;51.382;6.768;2023-02-03T04:57:34;102062.38;;;9.16;100.00
11987;BME280;6053;51.382;6.768;2023-02-03T05:00:03;102074.31;;;9.24;100.00
11987;BME280;6053;51.382;6.768;2023-02-03T05:02:32;102058.59;;;9.54;100.00
11987;BME280;6053;51.382;6.768;2023-02-03T05:05:01;102046.75;;;9.53;100.00
11987;BME280;6053;51.382;6.768;2023-02-03T05:07:29;102045.56;;;9.26;100.00
11987;BME280;6053;51.382;6.768;2023-02-03T05:09:59;102049.94;;;9.06;100.00
11987;BME280;6053;51.382;6.768;2023-02-03T05:12:28;102053.63;;;9.28;100.00
11987;BME280;6053;51.382;6.768;2023-02-03T05:14:56;102055.31;;;9.29;100.00
11987;BME280;6053;51.382;6.768;2023-02-03T05:17:25;102052.41;;;9.15;100.00
11987;BME280;6053;51.382;6.768;2023-02-03T05:19:54;102040.44;;;9.08;100.00
11987;BME280;6053;51.382;6.768;2023-02-03T05:22:22;102042.72;;;8.90;100.00
11987;BME280;6053;51.382;6.768;2023-02-03T05:24:51;102031.88;;;9.33;100.00
11987;BME280;6053;51.382;6.768;2023-02-03T05:27:21;102047.56;;;9.03;100.00
11987;BME280;6053;51.382;6.768;2023-02-03T05:29:49;102052.31;;;8.94;100.00
11987;BME280;6053;51.382;6.768;2023-02-03T05:32:18;102041.06;;;9.25;100.00
11987;BME280;6053;51.382;6.768;2023-02-03T05:34:46;102043.63;;;9.41;100.00
11987;BME280;6053;51.382;6.768;2023-02-03T05:37:15;102062.25;;;9.39;100.00
11987;BME280;6053;51.382;6.768;2023-02-03T05:39:44;102061.28;;;9.47;100.00
11987;BME280;6053;51.382;6.768;2023-02-03T05:42:12;102049.63;;;9.30;100.00
11987;BME280;6053;51.382;6.768;2023-02-03T05:44:41;102067.47;;;9.34;100.00
11987;BME280;6053;51.382;6.768;2023-02-03T05:47:10;102060.31;;;9.55;100.00
11987;BME280;6053;51.382;6.768;2023-02-03T05:49:38;102055.63;;;9.70;100.00
11987;BME280;6053;51.382;6.768;2023-02-03T05:52:07;102058.41;;;9.55;100.00
11987;BME280;6053;51.382;6.768;2023-02-03T05:54:35;102067.84;;;9.46;100.00
11987;BME280;6053;51.382;6.768;2023-02-03T05:57:04;102055.22;;;9.22;100.00
11987;BME280;6053;51.382;6.768;2023-02-03T05:59:33;102056.66;;;9.18;100.00
11987;BME280;6053;51.382;6.768;2023-02-03T06:02:02;102047.84;;;9.08;100.00
11987;BME280;6053;51.382;6.768;2023-02-03T06:04:31;102057.81;;;8.94;100.00
11987;BME280;6053;51.382;6.768;2023-02-03T06:07:00;102056.75;;;9.39;100.00
11987;BME280;6053;51.382;6.768;2023-02-03T06:09:28;102054.91;;;9.83;100.00
11987;BME280;6053;51.382;6.768;2023-02-03T06:11:57;102051.78;;;9.50;100.00
11987;BME280;6053;51.382;6.768;2023-02-03T06:14:25;102070.16;;;9.13;100.00
11987;BME280;6053;51.382;6.768;2023-02-03T06:16:54;102055.56;;;9.49;100.00
11987;BME280;6053;51.382;6.768;2023-02-03T06:19:25;102062.84;;;9.20;100.00
11987;BME280;6053;51.382;6.768;2023-02-03T06:21:53;102065.69;;;9.27;100.00
11987;BME280;6053;51.382;6.768;2023-02-03T06:24:22;102075.38;;;9.23;100.00
11987;BME280;6053;51.382;6.768;2023-02-03T06:26:50;102074.00;;;9.48;100.00
11987;BME280;6053;51.382;6.768;2023-02-03T06:29:19;102050.25;;;9.47;100.00
11987;BME280;6053;51.382;6.768;2023-02-03T06:31:47;102051.16;;;9.18;100.00
11987;BME280;6053;51.382;6.768;2023-02-03T06:34:16;102064.44;;;9.29;100.00
11987;BME280;6053;51.382;6.768;2023-02-03T06:36:46;102077.50;;;9.57;100.00
11987;BME280;6053;51.382;6.768;2023-02-03T06:39:15;102075.56;;;9.72;100.00
11987;BME280;6053;51.382;6.768;2023-02-03T06:41:44;102074.16;;;9.61;100.00
11987;BME280;6053;51.382;6.768;2023-02-03T06:44:12;102077.72;;;9.40;100.00
11987;BME280;6053;51.382;6.768;2023-02-03T06:46:41;102066.03;;;9.53;100.00
11987;BME280;6053;51.382;6.768;2023-02-03T06:49:10;102072.41;;;9.39;100.00
11987;BME280;6053;51.382;6.768;2023-02-03T06:51:38;102079.59;;;9.55;100.00
11987;BME280;6053;51.382;6.768;2023-02-03T06:54:10;102057.06;;;9.87;100.00
11987;BME280;6053;51.382;6.768;2023-02-03T06:56:39;102054.22;;;9.59;100.00
11987;BME280;6053;51.382;6.768;2023-02-03T06:59:07;102068.00;;;9.59;100.00
11987;BME280;6053;51.382;6.768;2023-02-03T07:01:36;102069.41;;;9.19;100.00
11987;BME280;6053;51.382;6.768;2023-02-03T07:04:05;102076.75;;;9.48;100.00
11987;BME280;6053;51.382;6.768;2023-02-03T07:06:33;102070.03;;;9.36;100.00
11987;BME280;6053;51.382;6.768;2023-02-03T07:09:03;102062.94;;;9.27;100.00
11987;BME280;6053;51.382;6.768;2023-02-03T07:11:34;102073.56;;;9.30;100.00
11987;BME280;6053;51.382;6.768;2023-02-03T07:14:02;102078.84;;;9.82;100.00
11987;BME280;6053;51.382;6.768;2023-02-03T07:16:31;102073.34;;;9.46;100.00
11987;BME280;6053;51.382;6.768;2023-02-03T07:19:00;102074.59;;;9.43;100.00
11987;BME280;6053;51.382;6.768;2023-02-03T07:21:29;102065.81;;;9.55;100.00
11987;BME280;6053;51.382;6.768;2023-02-03T07:23:57;102074.53;;;9.73;100.00
11987;BME280;6053;51.382;6.768;2023-02-03T07:26:26;102063.44;;;9.52;100.00
11987;BME280;6053;51.382;6.768;2023-02-03T07:28:56;102064.75;;;9.71;100.00
11987;BME280;6053;51.382;6.768;2023-02-03T07:31:27;102072.78;;;10.08;100.00
11987;BME280;6053;51.382;6.768;2023-02-03T07:33:56;102070.78;;;9.81;100.00
11987;BME280;6053;51.382;6.768;2023-02-03T07:36:24;102068.03;;;9.81;100.00
11987;BME280;6053;51.382;6.768;2023-02-03T07:38:54;102053.44;;;9.65;100.00
11987;BME280;6053;51.382;6.768;2023-02-03T07:41:23;102056.19;;;9.14;100.00
11987;BME280;6053;51.382;6.768;2023-02-03T07:43:51;102058.16;;;9.50;100.00
11987;BME280;6053;51.382;6.768;2023-02-03T07:46:21;102064.81;;;9.41;100.00
11987;BME280;6053;51.382;6.768;2023-02-03T07:48:50;102070.38;;;9.48;100.00
11987;BME280;6053;51.382;6.768;2023-02-03T07:51:19;102078.47;;;9.49;100.00
11987;BME280;6053;51.382;6.768;2023-02-03T07:53:48;102075.84;;;9.26;100.00
11987;BME280;6053;51.382;6.768;2023-02-03T07:56:16;102081.25;;;9.34;100.00
11987;BME280;6053;51.382;6.768;2023-02-03T07:58:45;102078.13;;;9.74;100.00
11987;BME280;6053;51.382;6.768;2023-02-03T08:01:15;102077.06;;;9.75;100.00
11987;BME280;6053;51.382;6.768;2023-02-03T08:03:45;102084.06;;;10.13;100.00
11987;BME280;6053;51.382;6.768;2023-02-03T08:06:14;102090.13;;;10.24;100.00
11987;BME280;6053;51.382;6.768;2023-02-03T08:08:42;102096.88;;;9.63;100.00
11987;BME280;6053;51.382;6.768;2023-02-03T08:11:11;102106.53;;;9.74;100.00
11987;BME280;6053;51.382;6.768;2023-02-03T08:13:39;102103.56;;;9.76;100.00
11987;BME280;6053;51.382;6.768;2023-02-03T08:16:08;102099.72;;;9.55;100.00
11987;BME280;6053;51.382;6.768;2023-02-03T08:18:37;102104.25;;;9.78;100.00
11987;BME280;6053;51.382;6.768;2023-02-03T08:21:07;102104.84;;;9.95;100.00
11987;BME280;6053;51.382;6.768;2023-02-03T08:23:35;102099.28;;;9.88;100.00
11987;BME280;6053;51.382;6.768;2023-02-03T08:26:04;102105.13;;;9.63;100.00
11987;BME280;6053;51.382;6.768;2023-02-03T08:28:33;102094.59;;;9.67;100.00
11987;BME280;6053;51.382;6.768;2023-02-03T08:31:07;102117.78;;;9.28;100.00
11987;BME280;6053;51.382;6.768;2023-02-03T08:33:36;102116.16;;;9.63;100.00
11987;BME280;6053;51.382;6.768;2023-02-03T08:36:07;102118.53;;;9.66;100.00
11987;BME280;6053;51.382;6.768;2023-02-03T08:38:37;102113.16;;;9.43;100.00
11987;BME280;6053;51.382;6.768;2023-02-03T08:41:10;102115.72;;;9.30;100.00
11987;BME280;6053;51.382;6.768;2023-02-03T08:43:39;102111.78;;;9.54;100.00
11987;BME280;6053;51.382;6.768;2023-02-03T08:46:09;102110.13;;;10.11;100.00
11987;BME280;6053;51.382;6.768;2023-02-03T08:48:38;102107.34;;;9.53;100.00
11987;BME280;6053;51.382;6.768;2023-02-03T08:51:12;102105.47;;;9.90;100.00
11987;BME280;6053;51.382;6.768;2023-02-03T08:53:41;102110.75;;;10.28;100.00
11987;BME280;6053;51.382;6.768;2023-02-03T08:56:11;102114.59;;;9.39;100.00
11987;BME280;6053;51.382;6.768;2023-02-03T08:58:40;102117.03;;;9.34;100.00
11987;BME280;6053;51.382;6.768;2023-02-03T09:01:09;102112.09;;;9.15;100.00
11987;BME280;6053;51.382;6.768;2023-02-03T09:03:39;102121.78;;;9.40;100.00
11987;BME280;6053;51.382;6.768;2023-02-03T09:06:10;102125.13;;;9.36;100.00
11987;BME280;6053;51.382;6.768;2023-02-03T09:08:42;102113.66;;;9.68;100.00
11987;BME280;6053;51.382;6.768;2023-02-03T09:11:14;102101.69;;;9.76;100.00
11987;BME280;6053;51.382;6.768;2023-02-03T09:13:43;102113.50;;;9.91;100.00
11987;BME280;6053;51.382;6.768;2023-02-03T09:16:14;102123.56;;;9.99;100.00
11987;BME280;6053;51.382;6.768;2023-02-03T09:18:44;102128.72;;;9.51;100.00
11987;BME280;6053;51.382;6.768;2023-02-03T09:21:15;102131.84;;;9.48;100.00
11987;BME280;6053;51.382;6.768;2023-02-03T09:24:02;102127.00;;;9.50;100.00
11987;BME280;6053;51.382;6.768;2023-02-03T09:26:31;102133.41;;;9.87;100.00
11987;BME280;6053;51.382;6.768;2023-02-03T09:29:00;102136.09;;;9.65;100.00
11987;BME280;6053;51.382;6.768;2023-02-03T09:31:28;102136.16;;;9.72;100.00
11987;BME280;6053;51.382;6.768;2023-02-03T09:33:58;102134.34;;;10.15;100.00
11987;BME280;6053;51.382;6.768;2023-02-03T09:36:28;102143.75;;;10.00;100.00
11987;BME280;6053;51.382;6.768;2023-02-03T09:38:57;102142.94;;;9.25;100.00
11987;BME280;6053;51.382;6.768;2023-02-03T09:44:32;102129.44;;;9.75;100.00
11987;BME280;6053;51.382;6.768;2023-02-03T09:47:08;102136.97;;;9.66;100.00
11987;BME280;6053;51.382;6.768;2023-02-03T09:49:39;102131.00;;;9.62;100.00
11987;BME280;6053;51.382;6.768;2023-02-03T09:52:14;102142.22;;;10.19;100.00
11987;BME280;6053;51.382;6.768;2023-02-03T09:54:49;102143.81;;;9.40;100.00
11987;BME280;6053;51.382;6.768;2023-02-03T09:57:22;102135.44;;;9.63;100.00
11987;BME280;6053;51.382;6.768;2023-02-03T09:59:53;102134.38;;;9.64;100.00
11987;BME280;6053;51.382;6.768;2023-02-03T10:02:48;102152.34;;;9.45;100.00
11987;BME280;6053;51.382;6.768;2023-02-03T10:05:29;102135.06;;;9.66;100.00
11987;BME280;6053;51.382;6.768;2023-02-03T10:08:06;102134.19;;;9.81;100.00
11987;BME280;6053;51.382;6.768;2023-02-03T10:10:40;102120.19;;;9.82;100.00
11987;BME280;6053;51.382;6.768;2023-02-03T10:13:24;102136.56;;;9.69;100.00
11987;BME280;6053;51.382;6.768;2023-02-03T10:16:07;102135.19;;;9.95;100.00
11987;BME280;6053;51.382;6.768;2023-02-03T10:18:46;102142.09;;;10.42;100.00
11987;BME280;6053;51.382;6.768;2023-02-03T10:21:20;102138.78;;;10.31;100.00
11987;BME280;6053;51.382;6.768;2023-02-03T10:23:54;102142.53;;;9.87;100.00
11987;BME280;6053;51.382;6.768;2023-02-03T10:26:26;102136.53;;;9.84;100.00
11987;BME280;6053;51.382;6.768;2023-02-03T10:28:56;102126.75;;;9.81;100.00
11987;BME280;6053;51.382;6.768;2023-02-03T10:31:27;102136.31;;;10.00;100.00
11987;BME280;6053;51.382;6.768;2023-02-03T10:34:03;102144.78;;;10.56;100.00
11987;BME280;6053;51.382;6.768;2023-02-03T10:36:46;102148.06;;;10.09;100.00
11987;BME280;6053;51.382;6.768;2023-02-03T10:39:23;102153.88;;;9.99;100.00
11987;BME280;6053;51.382;6.768;2023-02-03T10:41:55;102149.22;;;9.63;100.00
11987;BME280;6053;51.382;6.768;2023-02-03T10:44:30;102139.28;;;9.33;100.00
11987;BME280;6053;51.382;6.768;2023-02-03T10:47:01;102149.00;;;9.80;100.00
11987;BME280;6053;51.382;6.768;2023-02-03T10:49:29;102140.31;;;10.19;100.00
11987;BME280;6053;51.382;6.768;2023-02-03T10:52:00;102143.09;;;10.19;100.00
11987;BME280;6053;51.382;6.768;2023-02-03T10:54:34;102140.91;;;10.51;100.00
11987;BME280;6053;51.382;6.768;2023-02-03T10:57:09;102139.00;;;10.30;100.00
11987;BME280;6053;51.382;6.768;2023-02-03T10:59:41;102125.41;;;10.28;100.00
11987;BME280;6053;51.382;6.768;2023-02-03T11:02:21;102127.53;;;10.26;100.00
11987;BME280;6053;51.382;6.768;2023-02-03T11:05:07;102121.38;;;10.52;100.00
11987;BME280;6053;51.382;6.768;2023-02-03T11:07:36;102128.75;;;10.45;100.00
11987;BME280;6053;51.382;6.768;2023-02-03T11:10:30;102135.78;;;10.11;100.00
11987;BME280;6053;51.382;6.768;2023-02-03T11:13:20;102132.22;;;10.32;100.00
11987;BME280;6053;51.382;6.768;2023-02-03T11:15:54;102143.31;;;10.39;100.00
11987;BME280;6053;51.382;6.768;2023-02-03T11:18:51;102143.91;;;10.56;100.00
11987;BME280;6053;51.382;6.768;2023-02-03T11:21:22;102153.69;;;10.58;100.00
11987;BME280;6053;51.382;6.768;2023-02-03T11:23:55;102153.50;;;10.02;100.00
11987;BME280;6053;51.382;6.768;2023-02-03T11:26:28;102155.78;;;9.99;100.00
11987;BME280;6053;51.382;6.768;2023-02-03T11:29:00;102149.38;;;10.28;100.00
11987;BME280;6053;51.382;6.768;2023-02-03T11:31:31;102145.94;;;10.26;100.00
11987;BME280;6053;51.382;6.768;2023-02-03T11:34:03;102168.41;;;10.08;100.00
11987;BME280;6053;51.382;6.768;2023-02-03T11:36:34;102164.88;;;9.78;100.00
11987;BME280;6053;51.382;6.768;2023-02-03T11:39:27;102164.06;;;9.99;100.00
11987;BME280;6053;51.382;6.768;2023-02-03T11:42:20;102170.00;;;9.81;100.00
11987;BME280;6053;51.382;6.768;2023-02-03T11:44:49;102161.00;;;10.08;100.00
11987;BME280;6053;51.382;6.768;2023-02-03T11:47:18;102163.63;;;10.53;100.00
11987;BME280;6053;51.382;6.768;2023-02-03T11:50:05;102156.31;;;10.24;100.00
11987;BME280;6053;51.382;6.768;2023-02-03T11:52:49;102164.56;;;9.87;100.00
11987;BME280;6053;51.382;6.768;2023-02-03T11:55:29;102164.56;;;9.87;100.00
11987;BME280;6053;51.382;6.768;2023-02-03T11:58:31;102159.06;;;9.87;100.00
11987;BME280;6053;51.382;6.768;2023-02-03T12:01:12;102157.25;;;9.95;100.00
11987;BME280;6053;51.382;6.768;2023-02-03T12:04:17;102154.31;;;9.96;100.00
11987;BME280;6053;51.382;6.768;2023-02-03T12:07:17;102165.41;;;10.03;100.00
11987;BME280;6053;51.382;6.768;2023-02-03T12:09:53;102164.97;;;10.21;100.00
11987;BME280;6053;51.382;6.768;2023-02-03T12:12:46;102152.59;;;10.31;100.00
11987;BME280;6053;51.382;6.768;2023-02-03T12:15:42;102166.09;;;9.90;100.00
11987;BME280;6053;51.382;6.768;2023-02-03T12:18:30;102165.19;;;10.04;100.00
11987;BME280;6053;51.382;6.768;2023-02-03T12:21:24;102157.53;;;9.85;100.00
11987;BME280;6053;51.382;6.768;2023-02-03T12:24:03;102173.47;;;10.04;100.00
11987;BME280;6053;51.382;6.768;2023-02-03T12:26:41;102165.47;;;9.73;100.00
11987;BME280;6053;51.382;6.768;2023-02-03T12:29:18;102177.19;;;9.97;100.00
11987;BME280;6053;51.382;6.768;2023-02-03T12:31:56;102176.53;;;9.95;100.00
11987;BME280;6053;51.382;6.768;2023-02-03T12:34:32;102178.31;;;10.02;100.00
11987;BME280;6053;51.382;6.768;2023-02-03T12:37:05;102170.28;;;10.22;100.00
11987;BME280;6053;51.382;6.768;2023-02-03T12:39:39;102172.19;;;10.22;100.00
11987;BME280;6053;51.382;6.768;2023-02-03T12:42:14;102169.28;;;10.45;100.00
11987;BME280;6053;51.382;6.768;2023-02-03T12:44:49;102172.31;;;10.50;100.00
11987;BME280;6053;51.382;6.768;2023-02-03T12:47:26;102163.66;;;10.17;100.00
11987;BME280;6053;51.382;6.768;2023-02-03T12:49:59;102170.50;;;10.06;100.00
11987;BME280;6053;51.382;6.768;2023-02-03T12:52:33;102168.69;;;10.28;100.00
11987;BME280;6053;51.382;6.768;2023-02-03T12:55:15;102168.84;;;10.91;100.00
11987;BME280;6053;51.382;6.768;2023-02-03T12:57:50;102171.78;;;10.40;100.00
11987;BME280;6053;51.382;6.768;2023-02-03T13:00:33;102174.19;;;10.49;100.00
11987;BME280;6053;51.382;6.768;2023-02-03T13:03:14;102159.50;;;10.92;100.00
11987;BME280;6053;51.382;6.768;2023-02-03T13:05:49;102169.88;;;10.61;100.00
11987;BME280;6053;51.382;6.768;2023-02-03T13:08:25;102164.22;;;10.48;100.00
11987;BME280;6053;51.382;6.768;2023-02-03T13:11:02;102165.56;;;10.16;100.00
11987;BME280;6053;51.382;6.768;2023-02-03T13:13:41;102162.16;;;10.35;100.00
11987;BME280;6053;51.382;6.768;2023-02-03T13:16:14;102166.59;;;10.30;100.00
11987;BME280;6053;51.382;6.768;2023-02-03T13:18:51;102168.75;;;10.34;100.00
11987;BME280;6053;51.382;6.768;2023-02-03T13:21:21;102175.25;;;10.48;100.00
11987;BME280;6053;51.382;6.768;2023-02-03T13:23:50;102182.81;;;10.03;100.00
11987;BME280;6053;51.382;6.768;2023-02-03T13:26:43;102167.56;;;10.44;100.00
11987;BME280;6053;51.382;6.768;2023-02-03T13:29:27;102167.16;;;10.68;100.00